sensor_id;sensor_type;location;lat;lon;timestamp;pressure;altitude;pressure_sealevel;temperature;humidity
63097;BME280;49185;42.320;23.198;2023-04-26T00:00:42;93947.56;;;6.14;100.00
63097;BME280;49185;42.320;23.198;2023-04-26T00:03:07;93954.72;;;5.97;100.00
63097;BME280;49185;42.320;23.198;2023-04-26T00:05:33;93956.72;;;5.95;100.00
63097;BME280;49185;42.320;23.198;2023-04-26T00:07:58;93955.84;;;5.89;100.00
63097;BME280;49185;42.320;23.198;2023-04-26T00:10:24;93950.03;;;5.58;100.00
63097;BME280;49185;42.320;23.198;2023-04-26T00:12:49;93939.75;;;5.45;100.00
63097;BME280;49185;42.320;23.198;2023-04-26T00:15:14;93940.22;;;5.42;100.00
63097;BME280;49185;42.320;23.198;2023-04-26T00:17:40;93938.22;;;5.32;100.00
63097;BME280;49185;42.320;23.198;2023-04-26T00:20:06;93939.75;;;5.16;100.00
63097;BME280;49185;42.320;23.198;2023-04-26T00:22:31;93943.34;;;5.10;100.00
63097;BME280;49185;42.320;23.198;2023-04-26T00:24:56;93935.84;;;5.19;100.00
63097;BME280;49185;42.320;23.198;2023-04-26T00:27:22;93926.78;;;5.26;100.00
63097;BME280;49185;42.320;23.198;2023-04-26T00:29:47;93931.59;;;5.29;100.00
63097;BME280;49185;42.320;23.198;2023-04-26T00:32:13;93917.59;;;5.75;100.00
63097;BME280;49185;42.320;23.198;2023-04-26T00:34:38;93922.31;;;5.89;100.00
63097;BME280;49185;42.320;23.198;2023-04-26T00:37:04;93921.97;;;5.98;100.00
63097;BME280;49185;42.320;23.198;2023-04-26T00:39:30;93922.63;;;5.93;100.00
63097;BME280;49185;42.320;23.198;2023-04-26T00:41:56;93927.59;;;5.73;100.00
63097;BME280;49185;42.320;23.198;2023-04-26T00:44:22;93928.31;;;5.97;100.00
63097;BME280;49185;42.320;23.198;2023-04-26T00:46:48;93938.28;;;5.49;100.00
63097;BME280;49185;42.320;23.198;2023-04-26T00:49:18;93935.38;;;5.50;100.00
63097;BME280;49185;42.320;23.198;2023-04-26T00:51:45;93928.41;;;5.44;100.00
63097;BME280;49185;42.320;23.198;2023-04-26T00:54:12;93933.31;;;5.24;100.00
63097;BME280;49185;42.320;23.198;2023-04-26T00:56:38;93936.00;;;5.12;100.00
63097;BME280;49185;42.320;23.198;2023-04-26T00:59:04;93940.97;;;4.97;100.00
63097;BME280;49185;42.320;23.198;2023-04-26T01:01:29;93956.78;;;4.97;100.00
63097;BME280;49185;42.320;23.198;2023-04-26T01:03:56;93946.25;;;5.25;100.00
63097;BME280;49185;42.320;23.198;2023-04-26T01:06:21;93947.31;;;5.53;100.00
63097;BME280;49185;42.320;23.198;2023-04-26T01:08:49;93951.44;;;5.20;100.00
63097;BME280;49185;42.320;23.198;2023-04-26T01:11:18;93952.06;;;4.99;100.00
63097;BME280;49185;42.320;23.198;2023-04-26T01:13:45;93950.84;;;4.89;100.00
63097;BME280;49185;42.320;23.198;2023-04-26T01:16:12;93945.28;;;5.03;100.00
63097;BME280;49185;42.320;23.198;2023-04-26T01:18:40;93951.38;;;5.03;100.00
63097;BME280;49185;42.320;23.198;2023-04-26T01:21:05;93945.22;;;4.98;100.00
63097;BME280;49185;42.320;23.198;2023-04-26T01:23:31;93934.78;;;4.91;100.00
63097;BME280;49185;42.320;23.198;2023-04-26T01:25:56;93932.28;;;4.84;100.00
63097;BME280;49185;42.320;23.198;2023-04-26T01:28:22;93929.13;;;5.11;100.00
63097;BME280;49185;42.320;23.198;2023-04-26T01:30:47;93930.00;;;5.17;100.00
63097;BME280;49185;42.320;23.198;2023-04-26T01:33:12;93942.56;;;4.98;100.00
63097;BME280;49185;42.320;23.198;2023-04-26T01:35:38;93942.69;;;4.91;100.00
63097;BME280;49185;42.320;23.198;2023-04-26T01:38:03;93936.44;;;4.56;100.00
63097;BME280;49185;42.320;23.198;2023-04-26T01:40:29;93931.03;;;4.63;100.00
63097;BME280;49185;42.320;23.198;2023-04-26T01:42:54;93927.72;;;4.68;100.00
63097;BME280;49185;42.320;23.198;2023-04-26T01:45:20;93928.53;;;4.56;100.00
63097;BME280;49185;42.320;23.198;2023-04-26T01:47:45;93935.41;;;4.57;100.00
63097;BME280;49185;42.320;23.198;2023-04-26T01:50:11;93936.88;;;4.65;100.00
63097;BME280;49185;42.320;23.198;2023-04-26T01:52:36;93931.53;;;5.12;100.00
63097;BME280;49185;42.320;23.198;2023-04-26T01:55:02;93938.50;;;4.78;100.00
63097;BME280;49185;42.320;23.198;2023-04-26T01:57:27;93958.44;;;4.62;100.00
63097;BME280;49185;42.320;23.198;2023-04-26T01:59:53;93955.53;;;4.64;100.00
63097;BME280;49185;42.320;23.198;2023-04-26T02:02:18;93950.06;;;4.65;100.00
63097;BME280;49185;42.320;23.198;2023-04-26T02:04:43;93946.91;;;4.92;100.00
63097;BME280;49185;42.320;23.198;2023-04-26T02:07:09;93941.06;;;5.02;100.00
63097;BME280;49185;42.320;23.198;2023-04-26T02:09:34;93933.16;;;5.02;100.00
63097;BME280;49185;42.320;23.198;2023-04-26T02:12:00;93917.53;;;5.41;100.00
63097;BME280;49185;42.320;23.198;2023-04-26T02:14:25;93898.44;;;5.96;100.00
63097;BME280;49185;42.320;23.198;2023-04-26T02:16:50;93895.47;;;5.76;99.85
63097;BME280;49185;42.320;23.198;2023-04-26T02:19:16;93888.00;;;5.27;100.00
63097;BME280;49185;42.320;23.198;2023-04-26T02:21:55;93889.03;;;4.97;100.00
63097;BME280;49185;42.320;23.198;2023-04-26T02:24:20;93897.06;;;4.90;100.00
63097;BME280;49185;42.320;23.198;2023-04-26T02:26:46;93910.41;;;4.72;100.00
63097;BME280;49185;42.320;23.198;2023-04-26T02:29:11;93914.78;;;4.54;100.00
63097;BME280;49185;42.320;23.198;2023-04-26T02:31:37;93903.56;;;4.59;100.00
63097;BME280;49185;42.320;23.198;2023-04-26T02:34:02;93896.56;;;4.65;100.00
63097;BME280;49185;42.320;23.198;2023-04-26T02:36:28;93894.03;;;4.70;100.00
63097;BME280;49185;42.320;23.198;2023-04-26T02:38:53;93898.75;;;4.68;100.00
63097;BME280;49185;42.320;23.198;2023-04-26T02:41:18;93891.94;;;5.24;100.00
63097;BME280;49185;42.320;23.198;2023-04-26T02:43:44;93892.22;;;4.99;100.00
63097;BME280;49185;42.320;23.198;2023-04-26T02:46:09;93890.00;;;4.79;100.00
63097;BME280;49185;42.320;23.198;2023-04-26T02:48:35;93887.38;;;4.67;100.00
63097;BME280;49185;42.320;23.198;2023-04-26T02:51:00;93879.16;;;5.04;100.00
63097;BME280;49185;42.320;23.198;2023-04-26T02:53:26;93883.88;;;4.90;100.00
63097;BME280;49185;42.320;23.198;2023-04-26T02:55:51;93884.72;;;4.79;100.00
63097;BME280;49185;42.320;23.198;2023-04-26T02:58:16;93888.22;;;4.68;100.00
63097;BME280;49185;42.320;23.198;2023-04-26T03:00:46;93880.22;;;4.91;100.00
63097;BME280;49185;42.320;23.198;2023-04-26T03:03:11;93882.44;;;4.71;100.00
63097;BME280;49185;42.320;23.198;2023-04-26T03:05:36;93882.03;;;5.31;100.00
63097;BME280;49185;42.320;23.198;2023-04-26T03:08:02;93882.66;;;5.84;100.00
63097;BME280;49185;42.320;23.198;2023-04-26T03:10:27;93889.31;;;5.87;100.00
63097;BME280;49185;42.320;23.198;2023-04-26T03:12:53;93884.81;;;5.25;100.00
63097;BME280;49185;42.320;23.198;2023-04-26T03:15:19;93897.00;;;4.73;100.00
63097;BME280;49185;42.320;23.198;2023-04-26T03:17:44;93895.28;;;5.08;100.00
63097;BME280;49185;42.320;23.198;2023-04-26T03:20:10;93900.88;;;5.23;100.00
63097;BME280;49185;42.320;23.198;2023-04-26T03:22:35;93893.59;;;5.59;100.00
63097;BME280;49185;42.320;23.198;2023-04-26T03:25:01;93894.66;;;5.29;100.00
63097;BME280;49185;42.320;23.198;2023-04-26T03:27:26;93901.88;;;4.93;100.00
63097;BME280;49185;42.320;23.198;2023-04-26T03:29:55;93900.28;;;5.50;100.00
63097;BME280;49185;42.320;23.198;2023-04-26T03:32:20;93898.88;;;5.02;100.00
63097;BME280;49185;42.320;23.198;2023-04-26T03:34:45;93903.69;;;4.52;100.00
63097;BME280;49185;42.320;23.198;2023-04-26T03:37:11;93908.47;;;4.67;100.00
63097;BME280;49185;42.320;23.198;2023-04-26T03:39:36;93901.28;;;4.15;100.00
63097;BME280;49185;42.320;23.198;2023-04-26T03:42:02;93899.25;;;4.06;100.00
63097;BME280;49185;42.320;23.198;2023-04-26T03:44:27;93903.81;;;4.10;100.00
63097;BME280;49185;42.320;23.198;2023-04-26T03:46:53;93903.47;;;4.18;100.00
63097;BME280;49185;42.320;23.198;2023-04-26T03:49:18;93904.38;;;4.24;100.00
63097;BME280;49185;42.320;23.198;2023-04-26T03:51:44;93911.13;;;4.44;100.00
63097;BME280;49185;42.320;23.198;2023-04-26T03:54:09;93914.44;;;4.51;100.00
63097;BME280;49185;42.320;23.198;2023-04-26T03:56:34;93923.47;;;4.67;100.00
63097;BME280;49185;42.320;23.198;2023-04-26T03:59:00;93917.25;;;4.85;100.00
63097;BME280;49185;42.320;23.198;2023-04-26T04:01:25;93912.09;;;5.19;100.00
63097;BME280;49185;42.320;23.198;2023-04-26T04:03:51;93903.91;;;5.61;100.00
63097;BME280;49185;42.320;23.198;2023-04-26T04:06:16;93913.44;;;5.62;100.00
63097;BME280;49185;42.320;23.198;2023-04-26T04:08:41;93920.13;;;5.53;100.00
63097;BME280;49185;42.320;23.198;2023-04-26T04:11:07;93921.31;;;5.45;100.00
63097;BME280;49185;42.320;23.198;2023-04-26T04:13:32;93926.63;;;5.62;100.00
63097;BME280;49185;42.320;23.198;2023-04-26T04:15:58;93933.25;;;5.64;100.00
63097;BME280;49185;42.320;23.198;2023-04-26T04:18:23;93938.34;;;5.54;100.00
63097;BME280;49185;42.320;23.198;2023-04-26T04:20:49;93927.13;;;5.47;100.00
63097;BME280;49185;42.320;23.198;2023-04-26T04:23:14;93932.09;;;5.43;100.00
63097;BME280;49185;42.320;23.198;2023-04-26T04:25:40;93941.91;;;5.60;100.00
63097;BME280;49185;42.320;23.198;2023-04-26T04:28:06;93939.53;;;5.46;100.00
63097;BME280;49185;42.320;23.198;2023-04-26T04:30:31;93935.78;;;5.59;100.00
63097;BME280;49185;42.320;23.198;2023-04-26T04:32:57;93935.88;;;5.64;100.00
63097;BME280;49185;42.320;23.198;2023-04-26T04:35:22;93947.50;;;5.63;100.00
63097;BME280;49185;42.320;23.198;2023-04-26T04:37:47;93938.84;;;5.51;100.00
63097;BME280;49185;42.320;23.198;2023-04-26T04:40:13;93934.53;;;5.62;100.00
63097;BME280;49185;42.320;23.198;2023-04-26T04:42:38;93940.59;;;5.62;100.00
63097;BME280;49185;42.320;23.198;2023-04-26T04:45:04;93942.13;;;5.58;100.00
63097;BME280;49185;42.320;23.198;2023-04-26T04:47:30;93951.13;;;5.74;100.00
63097;BME280;49185;42.320;23.198;2023-04-26T04:49:55;93939.81;;;5.79;100.00
63097;BME280;49185;42.320;23.198;2023-04-26T04:52:21;93943.06;;;5.81;100.00
63097;BME280;49185;42.320;23.198;2023-04-26T04:54:46;93934.81;;;5.94;100.00
63097;BME280;49185;42.320;23.198;2023-04-26T04:57:12;93940.22;;;5.99;100.00
63097;BME280;49185;42.320;23.198;2023-04-26T04:59:37;93943.47;;;6.40;100.00
63097;BME280;49185;42.320;23.198;2023-04-26T05:02:02;93938.47;;;6.22;100.00
63097;BME280;49185;42.320;23.198;2023-04-26T05:04:28;93936.66;;;6.61;100.00
63097;BME280;49185;42.320;23.198;2023-04-26T05:06:53;93936.34;;;6.58;100.00
63097;BME280;49185;42.320;23.198;2023-04-26T05:09:19;93939.88;;;6.46;100.00
63097;BME280;49185;42.320;23.198;2023-04-26T05:11:44;93934.53;;;6.80;100.00
63097;BME280;49185;42.320;23.198;2023-04-26T05:14:10;93934.38;;;7.09;100.00
63097;BME280;49185;42.320;23.198;2023-04-26T05:16:35;93928.09;;;7.15;98.18
63097;BME280;49185;42.320;23.198;2023-04-26T05:19:01;93940.22;;;6.89;100.00
63097;BME280;49185;42.320;23.198;2023-04-26T05:21:26;93934.00;;;6.78;100.00
63097;BME280;49185;42.320;23.198;2023-04-26T05:23:51;93931.59;;;6.99;100.00
63097;BME280;49185;42.320;23.198;2023-04-26T05:26:17;93933.41;;;7.15;100.00
63097;BME280;49185;42.320;23.198;2023-04-26T05:28:42;93921.63;;;7.28;100.00
63097;BME280;49185;42.320;23.198;2023-04-26T05:31:08;93926.38;;;7.26;99.48
63097;BME280;49185;42.320;23.198;2023-04-26T05:33:34;93923.81;;;7.58;98.16
63097;BME280;49185;42.320;23.198;2023-04-26T05:36:00;93928.38;;;7.41;98.61
63097;BME280;49185;42.320;23.198;2023-04-26T05:38:25;93932.78;;;7.85;96.75
63097;BME280;49185;42.320;23.198;2023-04-26T05:40:51;93935.88;;;7.49;98.99
63097;BME280;49185;42.320;23.198;2023-04-26T05:43:16;93932.69;;;7.25;100.00
63097;BME280;49185;42.320;23.198;2023-04-26T05:45:52;93938.34;;;7.34;100.00
63097;BME280;49185;42.320;23.198;2023-04-26T05:48:22;93943.34;;;7.30;100.00
63097;BME280;49185;42.320;23.198;2023-04-26T05:50:48;93944.31;;;7.46;99.33
63097;BME280;49185;42.320;23.198;2023-04-26T05:53:15;93947.75;;;7.47;98.82
63097;BME280;49185;42.320;23.198;2023-04-26T05:55:42;93938.78;;;7.48;99.12
63097;BME280;49185;42.320;23.198;2023-04-26T05:58:08;93951.13;;;7.64;98.95
63097;BME280;49185;42.320;23.198;2023-04-26T06:00:33;93941.31;;;7.65;98.82
63097;BME280;49185;42.320;23.198;2023-04-26T06:02:59;93944.53;;;7.67;97.75
63097;BME280;49185;42.320;23.198;2023-04-26T06:05:24;93945.47;;;8.10;96.72
63097;BME280;49185;42.320;23.198;2023-04-26T06:07:50;93950.06;;;8.52;93.44
63097;BME280;49185;42.320;23.198;2023-04-26T06:10:16;93944.34;;;8.70;92.32
63097;BME280;49185;42.320;23.198;2023-04-26T06:12:41;93946.59;;;8.51;93.70
63097;BME280;49185;42.320;23.198;2023-04-26T06:15:07;93940.78;;;8.97;90.76
63097;BME280;49185;42.320;23.198;2023-04-26T06:17:33;93948.41;;;8.46;94.37
63097;BME280;49185;42.320;23.198;2023-04-26T06:19:58;93947.72;;;9.03;91.82
63097;BME280;49185;42.320;23.198;2023-04-26T06:22:24;93942.56;;;9.44;89.72
63097;BME280;49185;42.320;23.198;2023-04-26T06:24:49;93936.50;;;9.59;89.01
63097;BME280;49185;42.320;23.198;2023-04-26T06:27:14;93939.09;;;9.39;89.70
63097;BME280;49185;42.320;23.198;2023-04-26T06:29:40;93931.34;;;9.27;91.04
63097;BME280;49185;42.320;23.198;2023-04-26T06:32:05;93935.72;;;9.64;88.08
63097;BME280;49185;42.320;23.198;2023-04-26T06:34:31;93938.00;;;9.24;88.41
63097;BME280;49185;42.320;23.198;2023-04-26T06:36:56;93935.03;;;8.35;94.58
63097;BME280;49185;42.320;23.198;2023-04-26T06:39:22;93939.53;;;8.67;92.68
63097;BME280;49185;42.320;23.198;2023-04-26T06:41:47;93940.75;;;8.17;94.39
63097;BME280;49185;42.320;23.198;2023-04-26T06:44:12;93946.16;;;8.00;97.09
63097;BME280;49185;42.320;23.198;2023-04-26T06:46:38;93949.09;;;8.04;96.26
63097;BME280;49185;42.320;23.198;2023-04-26T06:49:03;93950.78;;;8.85;93.96
63097;BME280;49185;42.320;23.198;2023-04-26T06:51:29;93951.94;;;8.24;93.56
63097;BME280;49185;42.320;23.198;2023-04-26T06:53:55;93958.91;;;8.03;97.35
63097;BME280;49185;42.320;23.198;2023-04-26T06:56:20;93959.09;;;7.96;99.16
63097;BME280;49185;42.320;23.198;2023-04-26T06:59:05;93961.84;;;8.07;97.28
63097;BME280;49185;42.320;23.198;2023-04-26T07:01:32;93960.28;;;8.11;96.11
63097;BME280;49185;42.320;23.198;2023-04-26T07:03:59;93968.31;;;8.86;95.67
63097;BME280;49185;42.320;23.198;2023-04-26T07:06:25;93960.72;;;9.73;89.90
63097;BME280;49185;42.320;23.198;2023-04-26T07:08:51;93975.03;;;9.62;88.01
63097;BME280;49185;42.320;23.198;2023-04-26T07:11:16;93974.31;;;9.97;86.56
63097;BME280;49185;42.320;23.198;2023-04-26T07:13:42;93986.59;;;10.24;85.24
63097;BME280;49185;42.320;23.198;2023-04-26T07:16:07;93988.31;;;9.62;88.92
63097;BME280;49185;42.320;23.198;2023-04-26T07:18:33;93987.53;;;9.77;89.38
63097;BME280;49185;42.320;23.198;2023-04-26T07:20:58;93992.25;;;9.59;90.42
63097;BME280;49185;42.320;23.198;2023-04-26T07:23:24;93991.38;;;9.33;93.43
63097;BME280;49185;42.320;23.198;2023-04-26T07:25:49;93999.19;;;9.07;95.13
63097;BME280;49185;42.320;23.198;2023-04-26T07:28:15;93999.50;;;9.16;94.53
63097;BME280;49185;42.320;23.198;2023-04-26T07:30:40;94000.47;;;8.95;96.23
63097;BME280;49185;42.320;23.198;2023-04-26T07:33:06;94003.09;;;9.42;95.03
63097;BME280;49185;42.320;23.198;2023-04-26T07:35:31;93999.09;;;9.40;93.83
63097;BME280;49185;42.320;23.198;2023-04-26T07:37:57;94003.16;;;9.63;92.82
63097;BME280;49185;42.320;23.198;2023-04-26T07:40:22;94009.56;;;9.62;91.69
63097;BME280;49185;42.320;23.198;2023-04-26T07:42:47;94009.75;;;9.50;92.79
63097;BME280;49185;42.320;23.198;2023-04-26T07:45:13;94010.81;;;9.44;93.71
63097;BME280;49185;42.320;23.198;2023-04-26T07:47:38;94016.16;;;9.59;93.34
63097;BME280;49185;42.320;23.198;2023-04-26T07:50:04;94016.41;;;9.58;93.76
63097;BME280;49185;42.320;23.198;2023-04-26T07:52:30;94015.03;;;9.45;93.85
63097;BME280;49185;42.320;23.198;2023-04-26T07:54:55;94018.50;;;9.45;94.82
63097;BME280;49185;42.320;23.198;2023-04-26T07:57:21;94018.75;;;10.22;92.66
63097;BME280;49185;42.320;23.198;2023-04-26T07:59:46;94020.78;;;9.95;95.82
63097;BME280;49185;42.320;23.198;2023-04-26T08:02:11;94022.44;;;10.16;93.35
63097;BME280;49185;42.320;23.198;2023-04-26T08:04:37;94017.19;;;10.78;91.58
63097;BME280;49185;42.320;23.198;2023-04-26T08:07:02;94020.94;;;10.82;91.43
63097;BME280;49185;42.320;23.198;2023-04-26T08:09:28;94027.75;;;11.45;87.63
63097;BME280;49185;42.320;23.198;2023-04-26T08:11:54;94016.41;;;10.82;89.82
63097;BME280;49185;42.320;23.198;2023-04-26T08:14:19;94028.34;;;10.34;91.17
63097;BME280;49185;42.320;23.198;2023-04-26T08:16:45;94030.34;;;11.65;85.93
63097;BME280;49185;42.320;23.198;2023-04-26T08:19:10;94029.66;;;11.29;86.56
63097;BME280;49185;42.320;23.198;2023-04-26T08:21:35;94034.25;;;10.87;86.92
63097;BME280;49185;42.320;23.198;2023-04-26T08:24:01;94033.16;;;10.88;87.55
63097;BME280;49185;42.320;23.198;2023-04-26T08:26:26;94036.63;;;10.73;87.78
63097;BME280;49185;42.320;23.198;2023-04-26T08:28:52;94036.59;;;10.99;87.78
63097;BME280;49185;42.320;23.198;2023-04-26T08:31:17;94032.09;;;10.94;84.65
63097;BME280;49185;42.320;23.198;2023-04-26T08:33:42;94032.91;;;11.00;83.58
63097;BME280;49185;42.320;23.198;2023-04-26T08:36:08;94033.16;;;11.09;84.51
63097;BME280;49185;42.320;23.198;2023-04-26T08:38:33;94035.63;;;11.70;82.18
63097;BME280;49185;42.320;23.198;2023-04-26T08:40:59;94031.00;;;13.15;74.55
63097;BME280;49185;42.320;23.198;2023-04-26T08:43:24;94040.94;;;14.11;66.20
63097;BME280;49185;42.320;23.198;2023-04-26T08:45:50;94040.81;;;13.78;68.05
63097;BME280;49185;42.320;23.198;2023-04-26T08:48:17;94044.28;;;12.17;69.90
63097;BME280;49185;42.320;23.198;2023-04-26T08:50:43;94035.31;;;11.98;74.91
63097;BME280;49185;42.320;23.198;2023-04-26T08:53:13;94037.44;;;11.95;67.95
63097;BME280;49185;42.320;23.198;2023-04-26T08:55:40;94037.97;;;11.98;69.01
63097;BME280;49185;42.320;23.198;2023-04-26T08:58:05;94033.19;;;13.66;65.42
63097;BME280;49185;42.320;23.198;2023-04-26T09:00:31;94028.00;;;14.18;59.37
63097;BME280;49185;42.320;23.198;2023-04-26T09:02:56;94024.19;;;15.14;57.42
63097;BME280;49185;42.320;23.198;2023-04-26T09:05:22;94034.91;;;14.63;57.03
63097;BME280;49185;42.320;23.198;2023-04-26T09:07:49;94033.81;;;14.64;56.47
63097;BME280;49185;42.320;23.198;2023-04-26T09:10:18;94033.56;;;14.03;62.79
63097;BME280;49185;42.320;23.198;2023-04-26T09:12:44;94023.09;;;13.82;65.02
63097;BME280;49185;42.320;23.198;2023-04-26T09:15:10;94020.41;;;15.29;55.55
63097;BME280;49185;42.320;23.198;2023-04-26T09:17:37;94015.56;;;15.31;57.02
63097;BME280;49185;42.320;23.198;2023-04-26T09:22:48;94024.88;;;13.92;52.51
63097;BME280;49185;42.320;23.198;2023-04-26T09:25:16;94023.59;;;13.84;52.06
63097;BME280;49185;42.320;23.198;2023-04-26T09:27:43;94022.44;;;14.15;53.55
63097;BME280;49185;42.320;23.198;2023-04-26T09:30:14;94021.53;;;14.63;53.23
63097;BME280;49185;42.320;23.198;2023-04-26T09:32:54;94016.97;;;14.63;48.78
63097;BME280;49185;42.320;23.198;2023-04-26T09:35:39;94019.81;;;13.91;53.65
63097;BME280;49185;42.320;23.198;2023-04-26T09:38:13;94014.56;;;13.03;54.70
63097;BME280;49185;42.320;23.198;2023-04-26T09:43:15;94021.69;;;13.42;55.25
63097;BME280;49185;42.320;23.198;2023-04-26T09:45:56;94008.84;;;13.68;53.95
63097;BME280;49185;42.320;23.198;2023-04-26T09:48:23;94021.25;;;13.29;55.46
63097;BME280;49185;42.320;23.198;2023-04-26T09:50:51;94008.28;;;12.88;55.81
63097;BME280;49185;42.320;23.198;2023-04-26T09:55:54;94010.94;;;12.14;57.57
63097;BME280;49185;42.320;23.198;2023-04-26T09:58:20;94007.06;;;12.41;58.05
63097;BME280;49185;42.320;23.198;2023-04-26T10:00:50;94004.19;;;12.67;58.36
63097;BME280;49185;42.320;23.198;2023-04-26T10:03:21;94003.84;;;12.79;59.82
63097;BME280;49185;42.320;23.198;2023-04-26T10:05:47;94001.94;;;12.79;55.97
63097;BME280;49185;42.320;23.198;2023-04-26T10:08:12;94006.09;;;13.49;55.84
63097;BME280;49185;42.320;23.198;2023-04-26T10:10:38;94003.72;;;14.15;54.08
63097;BME280;49185;42.320;23.198;2023-04-26T10:13:07;93996.69;;;14.19;53.44
63097;BME280;49185;42.320;23.198;2023-04-26T10:15:34;93984.81;;;14.96;49.31
63097;BME280;49185;42.320;23.198;2023-04-26T10:17:59;93978.75;;;14.90;49.84
63097;BME280;49185;42.320;23.198;2023-04-26T10:20:27;93987.50;;;14.96;52.10
63097;BME280;49185;42.320;23.198;2023-04-26T10:22:55;93986.34;;;14.69;50.26
63097;BME280;49185;42.320;23.198;2023-04-26T10:25:33;93974.72;;;14.93;48.09
63097;BME280;49185;42.320;23.198;2023-04-26T10:27:59;93975.28;;;14.38;49.28
63097;BME280;49185;42.320;23.198;2023-04-26T10:30:25;93968.22;;;14.80;49.79
63097;BME280;49185;42.320;23.198;2023-04-26T10:40:32;93953.97;;;14.14;49.80
63097;BME280;49185;42.320;23.198;2023-04-26T10:45:36;93957.88;;;14.02;50.06
63097;BME280;49185;42.320;23.198;2023-04-26T10:48:14;93964.44;;;14.29;52.24
63097;BME280;49185;42.320;23.198;2023-04-26T10:53:24;93964.88;;;13.98;51.32
63097;BME280;49185;42.320;23.198;2023-04-26T10:55:49;93967.44;;;13.65;52.39
63097;BME280;49185;42.320;23.198;2023-04-26T10:58:32;93963.88;;;13.51;52.05
63097;BME280;49185;42.320;23.198;2023-04-26T11:03:30;93965.09;;;12.81;51.68
63097;BME280;49185;42.320;23.198;2023-04-26T11:05:55;93958.78;;;12.72;50.83
63097;BME280;49185;42.320;23.198;2023-04-26T11:08:27;93968.53;;;12.52;52.51
63097;BME280;49185;42.320;23.198;2023-04-26T11:11:09;93959.72;;;12.57;52.77
63097;BME280;49185;42.320;23.198;2023-04-26T11:13:42;93974.91;;;12.57;52.24
63097;BME280;49185;42.320;23.198;2023-04-26T11:16:09;93972.06;;;12.43;51.34
63097;BME280;49185;42.320;23.198;2023-04-26T11:18:37;93966.06;;;12.27;51.79
63097;BME280;49185;42.320;23.198;2023-04-26T11:21:03;93974.13;;;12.22;53.69
63097;BME280;49185;42.320;23.198;2023-04-26T11:23:29;93974.19;;;12.11;57.10
63097;BME280;49185;42.320;23.198;2023-04-26T11:25:59;93985.34;;;11.58;59.44
63097;BME280;49185;42.320;23.198;2023-04-26T11:28:25;93979.31;;;11.27;63.48
63097;BME280;49185;42.320;23.198;2023-04-26T11:30:50;93997.91;;;11.53;65.17
63097;BME280;49185;42.320;23.198;2023-04-26T11:33:17;94005.41;;;11.35;66.79
63097;BME280;49185;42.320;23.198;2023-04-26T11:35:45;94005.19;;;11.06;67.39
63097;BME280;49185;42.320;23.198;2023-04-26T11:38:10;94016.94;;;10.79;67.71
63097;BME280;49185;42.320;23.198;2023-04-26T11:40:35;94005.19;;;10.24;72.24
63097;BME280;49185;42.320;23.198;2023-04-26T11:43:05;94006.22;;;10.13;72.38
63097;BME280;49185;42.320;23.198;2023-04-26T11:45:32;94000.63;;;10.14;75.25
63097;BME280;49185;42.320;23.198;2023-04-26T11:47:57;93997.72;;;10.16;76.20
63097;BME280;49185;42.320;23.198;2023-04-26T11:50:25;93992.94;;;10.23;73.36
63097;BME280;49185;42.320;23.198;2023-04-26T11:52:56;93989.81;;;10.36;68.32
63097;BME280;49185;42.320;23.198;2023-04-26T11:55:23;93994.06;;;10.58;66.55
63097;BME280;49185;42.320;23.198;2023-04-26T11:57:49;93989.00;;;10.56;69.04
63097;BME280;49185;42.320;23.198;2023-04-26T12:00:15;93999.13;;;10.70;70.36
63097;BME280;49185;42.320;23.198;2023-04-26T12:02:47;93999.25;;;11.35;68.32
63097;BME280;49185;42.320;23.198;2023-04-26T12:05:27;94005.31;;;11.56;70.46
63097;BME280;49185;42.320;23.198;2023-04-26T12:07:54;94004.22;;;12.27;67.00
63097;BME280;49185;42.320;23.198;2023-04-26T12:10:24;94009.19;;;11.89;69.49
63097;BME280;49185;42.320;23.198;2023-04-26T12:12:51;94003.34;;;11.82;68.48
63097;BME280;49185;42.320;23.198;2023-04-26T12:15:17;94008.59;;;11.37;70.34
63097;BME280;49185;42.320;23.198;2023-04-26T12:18:05;94011.25;;;11.43;68.29
63097;BME280;49185;42.320;23.198;2023-04-26T12:20:32;94005.25;;;10.75;74.22
63097;BME280;49185;42.320;23.198;2023-04-26T12:23:00;94013.47;;;10.84;72.81
63097;BME280;49185;42.320;23.198;2023-04-26T12:25:27;94010.03;;;10.53;72.73
63097;BME280;49185;42.320;23.198;2023-04-26T12:27:52;94019.31;;;11.07;68.90
63097;BME280;49185;42.320;23.198;2023-04-26T12:30:18;94007.91;;;10.91;68.70
63097;BME280;49185;42.320;23.198;2023-04-26T12:32:43;94018.53;;;10.65;71.27
63097;BME280;49185;42.320;23.198;2023-04-26T12:35:08;94012.13;;;10.40;68.12
63097;BME280;49185;42.320;23.198;2023-04-26T12:37:34;94012.41;;;10.95;66.82
63097;BME280;49185;42.320;23.198;2023-04-26T12:39:59;94011.34;;;11.82;62.89
63097;BME280;49185;42.320;23.198;2023-04-26T12:42:25;94013.03;;;11.57;66.97
63097;BME280;49185;42.320;23.198;2023-04-26T12:44:50;94019.47;;;11.51;67.93
63097;BME280;49185;42.320;23.198;2023-04-26T12:47:16;94007.91;;;10.70;72.55
63097;BME280;49185;42.320;23.198;2023-04-26T12:49:41;94009.13;;;9.96;76.57
63097;BME280;49185;42.320;23.198;2023-04-26T12:52:07;94010.19;;;10.00;78.23
63097;BME280;49185;42.320;23.198;2023-04-26T12:54:32;94015.16;;;9.81;79.96
63097;BME280;49185;42.320;23.198;2023-04-26T12:56:58;94009.88;;;9.76;74.38
63097;BME280;49185;42.320;23.198;2023-04-26T12:59:23;94008.03;;;9.97;74.66
63097;BME280;49185;42.320;23.198;2023-04-26T13:01:48;94022.38;;;9.91;75.11
63097;BME280;49185;42.320;23.198;2023-04-26T13:04:14;94014.91;;;9.82;77.62
63097;BME280;49185;42.320;23.198;2023-04-26T13:06:40;94003.56;;;10.02;74.72
63097;BME280;49185;42.320;23.198;2023-04-26T13:09:05;93997.97;;;10.09;76.63
63097;BME280;49185;42.320;23.198;2023-04-26T13:11:30;93998.50;;;9.96;75.58